Time;durP1;ratioP1;P1;durP2;ratioP2;P2;SDS_P1;SDS_P2;PMS_P1;PMS_P2;Temp;Humidity;BMP_temperature;BMP_pressure;BME280_temperature;BME280_humidity;BME280_pressure;Samples;Min_cycle;Max_cycle;Signal;HPM_P1;HPM_P2
2022/10/20 00:01:22;;;;;;;13.33;8.30;;;11.40;99.90;;;;;;6256369;22;20178;-45
2022/10/20 00:03:48;;;;;;;13.30;8.87;;;11.50;99.90;;;;;;6256168;22;20219;-45
2022/10/20 00:06:17;;;;;;;13.23;7.50;;;11.50;99.90;;;;;;6255667;22;20179;-44
2022/10/20 00:08:43;;;;;;;13.00;8.70;;;11.50;99.90;;;;;;6253947;22;20168;-44
2022/10/20 00:11:11;;;;;;;12.70;8.57;;;11.50;99.90;;;;;;6253503;22;20632;-44
2022/10/20 00:13:37;;;;;;;11.70;8.03;;;11.50;99.90;;;;;;6255098;22;20223;-45
2022/10/20 00:16:03;;;;;;;12.07;8.30;;;11.50;99.90;;;;;;6255768;22;20155;-45
2022/10/20 00:18:29;;;;;;;12.50;8.10;;;11.50;99.90;;;;;;6254978;22;20179;-44
2022/10/20 00:20:55;;;;;;;13.20;7.97;;;11.60;99.90;;;;;;6254700;22;20179;-46
2022/10/20 00:23:21;;;;;;;9.70;6.33;;;11.60;99.90;;;;;;6254573;22;20155;-46
2022/10/20 00:25:46;;;;;;;12.63;6.77;;;11.60;99.90;;;;;;6254406;22;20209;-45
2022/10/20 00:28:12;;;;;;;15.53;8.37;;;11.60;99.90;;;;;;6254818;22;20175;-45
2022/10/20 00:30:38;;;;;;;17.43;8.53;;;11.60;99.90;;;;;;6254529;22;20155;-45
2022/10/20 00:33:05;;;;;;;12.60;8.50;;;11.70;99.90;;;;;;6254191;22;20152;-46
2022/10/20 00:35:31;;;;;;;15.97;8.67;;;11.60;99.90;;;;;;6253691;22;20163;-43
2022/10/20 00:37:57;;;;;;;11.83;7.93;;;11.70;99.90;;;;;;6254955;22;20376;-44
2022/10/20 00:40:24;;;;;;;15.57;8.90;;;11.60;99.90;;;;;;6252655;23;20174;-45
2022/10/20 00:42:50;;;;;;;13.33;8.30;;;11.60;99.90;;;;;;6254212;22;20489;-44
2022/10/20 00:45:19;;;;;;;12.00;7.80;;;11.60;99.90;;;;;;6254929;22;20207;-45
2022/10/20 00:48:05;;;;;;;15.47;10.00;;;11.70;99.90;;;;;;6253186;22;20186;-45
2022/10/20 00:50:40;;;;;;;12.27;8.67;;;11.60;99.90;;;;;;6253351;22;20167;-44
2022/10/20 00:53:07;;;;;;;11.70;8.50;;;11.60;99.90;;;;;;6252514;23;20489;-45
2022/10/20 00:55:36;;;;;;;11.77;8.67;;;11.60;99.90;;;;;;6254408;22;20190;-46
2022/10/20 00:58:03;;;;;;;13.57;8.87;;;11.60;99.90;;;;;;6254384;22;20198;-45
2022/10/20 01:00:29;;;;;;;17.07;9.30;;;11.70;99.90;;;;;;6252024;23;20169;-45
2022/10/20 01:02:59;;;;;;;13.67;9.17;;;11.70;99.90;;;;;;6251448;23;20166;-46
2022/10/20 01:05:26;;;;;;;13.73;8.73;;;11.70;99.90;;;;;;6253179;22;20605;-46
2022/10/20 01:07:51;;;;;;;12.60;8.87;;;11.70;99.90;;;;;;6254516;22;20536;-44
2022/10/20 01:10:18;;;;;;;14.77;10.03;;;11.70;99.90;;;;;;6254728;22;20151;-45
2022/10/20 01:13:19;;;;;;;13.67;9.20;;;11.70;99.90;;;;;;6252398;23;20190;-44
2022/10/20 01:16:11;;;;;;;14.03;8.83;;;11.70;99.90;;;;;;6254208;22;20492;-46
2022/10/20 01:18:43;;;;;;;15.20;9.20;;;11.70;99.90;;;;;;6253901;22;20576;-44
2022/10/20 01:21:33;;;;;;;14.20;8.97;;;11.70;99.90;;;;;;6253840;22;20564;-44
2022/10/20 01:24:10;;;;;;;13.77;8.97;;;11.70;99.90;;;;;;6254826;22;20477;-44
2022/10/20 01:26:42;;;;;;;13.03;8.37;;;11.70;99.90;;;;;;6254387;22;20170;-44
2022/10/20 01:29:28;;;;;;;11.23;7.40;;;11.60;99.90;;;;;;6255871;22;20174;-44
2022/10/20 01:32:00;;;;;;;15.60;9.17;;;11.70;99.90;;;;;;6254221;22;20136;-39
2022/10/20 01:34:48;;;;;;;12.60;9.47;;;11.70;99.90;;;;;;6251141;22;20167;-40
2022/10/20 01:37:19;;;;;;;13.67;9.03;;;11.70;99.90;;;;;;6252904;22;20187;-40
2022/10/20 01:39:51;;;;;;;16.87;9.77;;;11.70;99.90;;;;;;6252295;22;20140;-40
2022/10/20 01:42:23;;;;;;;14.53;9.57;;;11.70;99.90;;;;;;6251569;22;20643;-40
2022/10/20 01:44:54;;;;;;;13.10;8.97;;;11.60;99.90;;;;;;6252501;22;20171;-38
2022/10/20 01:47:23;;;;;;;12.70;8.67;;;11.60;99.90;;;;;;6253521;22;20183;-38
2022/10/20 01:49:50;;;;;;;13.37;8.83;;;11.60;99.90;;;;;;6253456;22;20152;-38
2022/10/20 01:52:16;;;;;;;15.10;7.97;;;11.60;99.90;;;;;;6253321;22;20643;-38
2022/10/20 01:54:42;;;;;;;9.87;6.80;;;11.60;99.90;;;;;;6253932;22;20162;-38
2022/10/20 01:57:32;;;;;;;15.67;8.70;;;11.60;99.90;;;;;;6252193;22;20179;-40
2022/10/20 02:00:17;;;;;;;13.43;9.10;;;11.50;99.90;;;;;;6252909;22;20155;-40
2022/10/20 02:02:54;;;;;;;12.50;7.67;;;11.50;99.90;;;;;;6253710;22;20151;-38
2022/10/20 02:05:46;;;;;;;11.17;8.10;;;11.50;99.90;;;;;;6253581;22;20201;-40
2022/10/20 02:08:35;;;;;;;10.17;7.37;;;11.50;99.90;;;;;;6253541;22;20507;-40
2022/10/20 02:11:04;;;;;;;15.20;8.67;;;11.50;99.90;;;;;;6254221;22;20485;-40
2022/10/20 02:13:30;;;;;;;13.13;8.43;;;11.60;99.90;;;;;;6253483;22;20200;-40
2022/10/20 02:16:00;;;;;;;11.50;6.87;;;11.50;99.90;;;;;;6253527;22;20163;-40
2022/10/20 02:18:42;;;;;;;12.03;8.57;;;11.50;99.90;;;;;;6253026;22;20186;-39
2022/10/20 02:21:09;;;;;;;10.87;8.07;;;11.50;99.90;;;;;;6253321;22;20204;-40
2022/10/20 02:23:37;;;;;;;17.93;7.60;;;11.50;99.90;;;;;;6252762;22;20159;-39
2022/10/20 02:26:06;;;;;;;11.03;7.93;;;11.50;99.90;;;;;;6252524;22;20628;-40
2022/10/20 02:28:34;;;;;;;12.07;7.57;;;11.50;99.90;;;;;;6252714;22;20224;-38
2022/10/20 02:31:01;;;;;;;12.60;8.17;;;11.50;99.90;;;;;;6253869;22;20151;-39
2022/10/20 02:33:28;;;;;;;13.77;7.80;;;11.50;99.90;;;;;;6254118;22;20632;-39
2022/10/20 02:35:58;;;;;;;10.10;7.67;;;11.50;99.90;;;;;;6252990;22;20182;-40
2022/10/20 02:38:24;;;;;;;12.23;7.80;;;11.50;99.90;;;;;;6252694;22;20206;-38
2022/10/20 02:40:50;;;;;;;12.53;7.37;;;11.50;99.90;;;;;;6253021;22;20162;-40
2022/10/20 02:43:16;;;;;;;11.73;8.03;;;11.50;99.90;;;;;;6252414;22;20210;-38
2022/10/20 02:45:41;;;;;;;11.73;6.97;;;11.40;99.90;;;;;;6253255;22;20179;-39
2022/10/20 02:48:08;;;;;;;13.77;7.83;;;11.40;99.90;;;;;;6253295;22;20174;-41
2022/10/20 02:50:36;;;;;;;9.87;7.50;;;11.40;99.90;;;;;;6253739;22;20234;-40
2022/10/20 02:53:02;;;;;;;13.50;8.10;;;11.40;99.90;;;;;;6253265;22;20165;-41
2022/10/20 02:55:28;;;;;;;11.87;8.00;;;11.50;99.90;;;;;;6251343;23;20261;-40
2022/10/20 02:57:53;;;;;;;14.63;8.13;;;11.40;99.90;;;;;;6251655;23;20621;-39
2022/10/20 03:00:20;;;;;;;13.03;8.43;;;11.40;99.90;;;;;;6252209;22;20152;-39
2022/10/20 03:02:46;;;;;;;10.53;7.83;;;11.40;99.90;;;;;;6252838;22;20162;-38
2022/10/20 03:05:12;;;;;;;12.20;7.67;;;11.40;99.90;;;;;;6252915;22;20155;-38
2022/10/20 03:07:38;;;;;;;11.30;7.73;;;11.40;99.90;;;;;;6253305;22;20167;-39
2022/10/20 03:10:04;;;;;;;14.03;7.83;;;11.40;99.90;;;;;;6252740;22;20162;-38
2022/10/20 03:12:30;;;;;;;13.57;8.10;;;11.40;99.90;;;;;;6253504;22;20189;-39
2022/10/20 03:14:55;;;;;;;13.73;8.27;;;11.40;99.90;;;;;;6252916;22;20158;-41
2022/10/20 03:17:21;;;;;;;17.17;8.17;;;11.40;99.90;;;;;;6252869;22;20640;-40
2022/10/20 03:19:48;;;;;;;12.10;8.43;;;11.40;99.90;;;;;;6251373;22;20188;-39
2022/10/20 03:22:13;;;;;;;16.77;9.00;;;11.40;99.90;;;;;;6252780;22;20155;-41
2022/10/20 03:24:39;;;;;;;12.00;8.03;;;11.40;99.90;;;;;;6253128;22;20173;-40
2022/10/20 03:27:05;;;;;;;11.20;7.80;;;11.40;99.90;;;;;;6250140;22;20187;-38
2022/10/20 03:29:30;;;;;;;11.50;8.10;;;11.40;99.90;;;;;;6249911;22;20170;-39
2022/10/20 03:31:56;;;;;;;13.63;7.80;;;11.30;99.90;;;;;;6251713;22;20458;-40
2022/10/20 03:34:21;;;;;;;11.43;8.40;;;11.40;99.90;;;;;;6251522;22;20232;-40
2022/10/20 03:36:47;;;;;;;15.00;8.33;;;11.40;99.90;;;;;;6251098;22;20158;-39
2022/10/20 03:39:13;;;;;;;17.20;8.43;;;11.40;99.90;;;;;;6250202;22;20158;-39
2022/10/20 03:41:38;;;;;;;14.80;8.67;;;11.30;99.90;;;;;;6249670;23;20245;-39
2022/10/20 03:44:04;;;;;;;11.57;8.00;;;11.30;99.90;;;;;;6251199;22;20155;-38
2022/10/20 03:46:29;;;;;;;15.27;7.93;;;11.30;99.90;;;;;;6251268;22;20187;-41
2022/10/20 03:48:55;;;;;;;11.17;7.33;;;11.30;99.90;;;;;;6250269;22;20557;-41
2022/10/20 03:51:21;;;;;;;14.20;8.40;;;11.30;99.90;;;;;;6251312;22;20187;-39
2022/10/20 03:53:46;;;;;;;14.83;8.47;;;11.30;99.90;;;;;;6252041;22;20220;-39
2022/10/20 03:56:16;;;;;;;10.83;8.27;;;11.30;99.90;;;;;;6251408;22;20658;-38
2022/10/20 03:58:41;;;;;;;10.80;7.83;;;11.30;99.90;;;;;;6251055;22;20186;-38
2022/10/20 04:01:10;;;;;;;8.97;6.57;;;11.30;99.90;;;;;;6251200;22;20238;-41
2022/10/20 04:03:35;;;;;;;12.53;7.27;;;11.30;99.90;;;;;;6251038;22;20155;-38
2022/10/20 04:06:01;;;;;;;11.97;7.07;;;11.30;99.90;;;;;;6249428;22;20185;-42
2022/10/20 04:08:26;;;;;;;10.07;6.70;;;11.30;99.90;;;;;;6246847;22;20206;-41
2022/10/20 04:10:52;;;;;;;11.00;7.13;;;11.30;99.90;;;;;;6246546;22;20151;-39
2022/10/20 04:13:17;;;;;;;12.73;7.40;;;11.30;99.90;;;;;;6246337;22;20154;-39
2022/10/20 04:15:43;;;;;;;13.23;7.80;;;11.30;99.90;;;;;;6246018;22;20492;-40
2022/10/20 04:18:08;;;;;;;13.03;7.60;;;11.30;99.90;;;;;;6246036;22;20284;-39
2022/10/20 04:20:34;;;;;;;11.40;7.40;;;11.20;99.90;;;;;;6246020;22;20198;-39
2022/10/20 04:22:59;;;;;;;14.20;7.03;;;11.20;99.90;;;;;;6246345;22;20159;-37
2022/10/20 04:25:25;;;;;;;12.70;8.00;;;11.30;99.90;;;;;;6245951;22;20163;-42
2022/10/20 04:27:50;;;;;;;11.20;8.57;;;11.20;99.90;;;;;;6245897;22;20178;-40
2022/10/20 04:30:16;;;;;;;9.80;7.13;;;11.20;99.90;;;;;;6245918;22;20206;-41
2022/10/20 04:32:42;;;;;;;8.53;5.80;;;11.20;99.90;;;;;;6246272;22;20205;-40
2022/10/20 04:35:08;;;;;;;11.40;7.13;;;11.30;99.90;;;;;;6245920;22;20488;-38
2022/10/20 04:37:33;;;;;;;13.30;8.63;;;11.20;99.90;;;;;;6246208;22;20179;-40
2022/10/20 04:39:59;;;;;;;12.27;8.27;;;11.30;99.90;;;;;;6246016;22;20156;-41
2022/10/20 04:42:24;;;;;;;11.73;8.10;;;11.20;99.90;;;;;;6246473;22;20152;-40
2022/10/20 04:44:50;;;;;;;10.47;6.17;;;11.20;99.90;;;;;;6245962;22;20611;-38
2022/10/20 04:47:16;;;;;;;15.73;6.90;;;11.20;99.90;;;;;;6246065;22;20191;-39
2022/10/20 04:49:41;;;;;;;11.37;7.23;;;11.20;99.90;;;;;;6245824;22;20255;-39
2022/10/20 04:52:07;;;;;;;11.40;6.77;;;11.20;99.90;;;;;;6246179;22;20159;-41
2022/10/20 04:54:32;;;;;;;13.57;7.60;;;11.30;99.90;;;;;;6246216;22;20162;-39
2022/10/20 04:56:58;;;;;;;10.73;7.60;;;11.20;99.90;;;;;;6245695;22;20178;-41
2022/10/20 04:59:24;;;;;;;11.83;6.67;;;11.20;99.90;;;;;;6244255;23;20163;-41
2022/10/20 05:01:49;;;;;;;10.47;7.07;;;11.20;99.90;;;;;;6246272;22;20554;-40
2022/10/20 05:04:20;;;;;;;9.57;6.93;;;11.20;99.90;;;;;;6248142;22;20169;-42
2022/10/20 05:06:47;;;;;;;14.53;8.30;;;11.20;99.90;;;;;;6248179;22;20174;-39
2022/10/20 05:09:13;;;;;;;14.07;7.50;;;11.20;99.90;;;;;;6247905;22;20620;-40
2022/10/20 05:11:38;;;;;;;11.77;7.20;;;11.20;99.90;;;;;;6247884;22;20154;-40
2022/10/20 05:14:04;;;;;;;16.07;7.17;;;11.20;99.90;;;;;;6248264;22;20692;-42
2022/10/20 05:16:30;;;;;;;9.87;6.97;;;11.20;99.90;;;;;;6248176;22;20631;-39
2022/10/20 05:18:56;;;;;;;8.83;5.80;;;11.20;99.90;;;;;;6248586;22;20155;-42
2022/10/20 05:21:26;;;;;;;12.30;6.60;;;11.20;99.90;;;;;;6248122;22;20163;-41
2022/10/20 05:23:57;;;;;;;9.77;7.40;;;11.20;99.90;;;;;;6246300;23;20596;-41
2022/10/20 05:26:23;;;;;;;11.07;7.23;;;11.10;99.90;;;;;;6247659;22;20210;-40
2022/10/20 05:28:50;;;;;;;11.73;6.03;;;11.20;99.90;;;;;;6247328;22;20190;-40
2022/10/20 05:31:17;;;;;;;10.97;6.53;;;11.10;99.90;;;;;;6247651;22;20152;-40
2022/10/20 05:33:49;;;;;;;15.00;7.23;;;11.10;99.90;;;;;;6247539;22;20177;-39
2022/10/20 05:36:18;;;;;;;12.40;6.47;;;11.10;99.90;;;;;;6247945;22;20159;-40
2022/10/20 05:38:44;;;;;;;12.63;7.30;;;11.10;99.90;;;;;;6247476;22;20564;-40
2022/10/20 05:41:15;;;;;;;9.67;6.83;;;11.10;99.90;;;;;;6247604;22;20159;-41
2022/10/20 05:43:40;;;;;;;10.30;6.43;;;11.10;99.90;;;;;;6247885;22;20477;-40
2022/10/20 05:46:07;;;;;;;11.23;6.93;;;11.10;99.90;;;;;;6245868;23;20189;-41
2022/10/20 05:48:33;;;;;;;9.80;6.97;;;11.10;99.90;;;;;;6246102;23;20179;-40
2022/10/20 05:51:15;;;;;;;9.83;6.83;;;11.00;99.90;;;;;;6247781;22;20158;-39
2022/10/20 05:53:41;;;;;;;11.87;8.13;;;11.10;99.90;;;;;;6248221;22;20140;-39
2022/10/20 05:56:08;;;;;;;10.10;6.53;;;11.10;99.90;;;;;;6247884;22;20178;-40
2022/10/20 05:58:34;;;;;;;8.90;6.90;;;11.00;99.90;;;;;;6245844;23;20232;-40
2022/10/20 06:01:15;;;;;;;11.43;6.60;;;11.00;99.90;;;;;;6247404;22;20160;-43
2022/10/20 06:03:41;;;;;;;14.50;6.90;;;11.00;99.90;;;;;;6246045;23;20238;-41
2022/10/20 06:06:07;;;;;;;11.10;7.20;;;11.00;99.90;;;;;;6247249;22;20223;-40
2022/10/20 06:08:33;;;;;;;6.33;5.43;;;11.10;99.90;;;;;;6247302;22;20179;-40
2022/10/20 06:11:07;;;;;;;12.10;6.53;;;11.00;99.90;;;;;;6245691;23;20192;-41
2022/10/20 06:13:34;;;;;;;11.30;7.40;;;11.00;99.90;;;;;;6246702;22;20230;-40
2022/10/20 06:16:05;;;;;;;10.30;6.00;;;11.00;99.90;;;;;;6247322;22;20540;-41
2022/10/20 06:18:31;;;;;;;8.90;6.23;;;11.00;99.90;;;;;;6247194;22;20182;-41
2022/10/20 06:20:59;;;;;;;13.57;6.33;;;11.00;99.90;;;;;;6247522;22;20163;-42
2022/10/20 06:23:24;;;;;;;5.00;3.30;;;11.00;99.90;;;;;;6247485;22;20158;-41
2022/10/20 06:25:50;;;;;;;7.73;6.07;;;11.00;99.90;;;;;;6247114;22;20629;-43
2022/10/20 06:28:15;;;;;;;16.73;7.10;;;11.10;99.90;;;;;;6247029;22;20474;-40
2022/10/20 06:30:41;;;;;;;10.17;6.30;;;11.00;99.90;;;;;;6247436;22;20181;-41
2022/10/20 06:33:11;;;;;;;7.80;5.70;;;11.10;99.90;;;;;;6245416;23;20209;-40
2022/10/20 06:35:36;;;;;;;10.60;7.23;;;11.10;99.90;;;;;;6247175;22;20155;-41
2022/10/20 06:38:03;;;;;;;7.43;5.03;;;11.10;99.90;;;;;;6247178;22;20178;-42
2022/10/20 06:40:28;;;;;;;6.63;4.87;;;11.10;99.90;;;;;;6247258;22;20158;-43
2022/10/20 06:42:54;;;;;;;10.17;6.03;;;11.10;99.90;;;;;;6249003;22;20165;-42
2022/10/20 06:45:19;;;;;;;10.40;6.43;;;11.20;99.90;;;;;;6249147;22;20162;-42
2022/10/20 06:47:45;;;;;;;16.40;6.90;;;11.10;99.90;;;;;;6246872;22;20178;-39
2022/10/20 06:50:11;;;;;;;11.43;7.97;;;11.20;99.90;;;;;;6247018;22;20159;-40
2022/10/20 06:52:36;;;;;;;11.47;6.90;;;11.20;99.90;;;;;;6246837;22;20250;-40
2022/10/20 06:55:02;;;;;;;12.13;7.00;;;11.20;99.90;;;;;;6247079;22;20155;-38
2022/10/20 06:57:31;;;;;;;10.40;5.80;;;11.20;99.90;;;;;;6246777;22;20507;-40
2022/10/20 06:59:56;;;;;;;8.17;6.57;;;11.20;99.90;;;;;;6247124;22;20159;-39
2022/10/20 07:02:22;;;;;;;12.03;6.70;;;11.20;99.90;;;;;;6247165;22;20165;-44
2022/10/20 07:04:49;;;;;;;9.70;6.63;;;11.20;99.90;;;;;;6247944;22;20159;-46
2022/10/20 07:07:14;;;;;;;7.33;6.07;;;11.20;99.90;;;;;;6250942;22;20261;-45
2022/10/20 07:09:40;;;;;;;9.77;6.33;;;11.30;99.90;;;;;;6251048;22;20151;-46
2022/10/20 07:12:05;;;;;;;10.27;7.00;;;11.30;99.90;;;;;;6251273;22;20155;-47
2022/10/20 07:14:31;;;;;;;11.40;7.33;;;11.30;99.90;;;;;;6251579;22;20237;-45
2022/10/20 07:16:56;;;;;;;17.50;6.77;;;11.30;99.90;;;;;;6251393;22;20225;-45
2022/10/20 07:19:22;;;;;;;10.30;7.07;;;11.30;99.90;;;;;;6251329;22;20151;-45
2022/10/20 07:21:48;;;;;;;9.27;6.60;;;11.30;99.90;;;;;;6250054;23;20178;-46
2022/10/20 07:24:15;;;;;;;15.60;7.00;;;11.40;99.90;;;;;;6251273;22;20192;-45
2022/10/20 07:26:41;;;;;;;13.40;7.27;;;11.40;99.90;;;;;;6252345;22;20189;-45
2022/10/20 07:29:07;;;;;;;10.57;7.07;;;11.40;99.90;;;;;;6254745;23;20237;-45
2022/10/20 07:31:45;;;;;;;10.33;7.00;;;11.50;99.90;;;;;;6253342;22;20155;-46
2022/10/20 07:34:12;;;;;;;9.40;6.90;;;11.50;99.90;;;;;;6255340;22;20150;-46
2022/10/20 07:36:40;;;;;;;7.80;6.57;;;11.50;99.90;;;;;;6252271;23;20167;-45
2022/10/20 07:39:06;;;;;;;12.00;7.37;;;11.60;99.90;;;;;;6254906;22;20166;-44
2022/10/20 07:41:32;;;;;;;11.67;7.30;;;11.60;99.90;;;;;;6252941;23;20541;-46
2022/10/20 07:43:58;;;;;;;10.17;7.47;;;11.70;99.90;;;;;;6252906;22;20612;-47
2022/10/20 07:46:24;;;;;;;13.27;6.90;;;11.70;99.90;;;;;;6251069;22;20184;-46
2022/10/20 07:48:50;;;;;;;12.00;7.80;;;11.80;99.90;;;;;;6250571;22;20178;-45
2022/10/20 07:51:23;;;;;;;10.77;6.97;;;11.80;99.90;;;;;;6250402;22;20158;-47
2022/10/20 07:53:56;;;;;;;12.43;5.83;;;11.90;99.90;;;;;;6251082;22;20177;-47
2022/10/20 07:56:23;;;;;;;13.20;7.80;;;12.00;99.90;;;;;;6250831;22;20584;-46
2022/10/20 07:58:48;;;;;;;12.60;6.90;;;12.00;99.90;;;;;;6249257;23;20182;-47
2022/10/20 08:01:14;;;;;;;10.80;7.33;;;12.00;99.90;;;;;;6250510;22;20256;-47
2022/10/20 08:03:40;;;;;;;14.17;6.53;;;12.10;99.90;;;;;;6250525;22;20154;-46
2022/10/20 08:06:06;;;;;;;9.47;7.47;;;12.10;99.90;;;;;;6250304;22;20205;-47
2022/10/20 08:08:32;;;;;;;16.90;7.33;;;12.20;99.90;;;;;;6250158;22;20174;-45
2022/10/20 08:10:58;;;;;;;10.53;7.40;;;12.20;99.90;;;;;;6249453;23;20234;-46
2022/10/20 08:13:27;;;;;;;9.60;7.20;;;12.20;99.90;;;;;;6251368;22;20170;-47
2022/10/20 08:15:53;;;;;;;12.70;7.20;;;12.30;99.90;;;;;;6250477;22;20163;-46
2022/10/20 08:18:19;;;;;;;14.70;6.93;;;12.30;99.90;;;;;;6250220;22;20253;-46
2022/10/20 08:20:45;;;;;;;6.63;4.67;;;12.40;99.90;;;;;;6250195;22;20162;-46
2022/10/20 08:23:15;;;;;;;10.13;6.60;;;12.40;99.90;;;;;;6248289;23;20500;-45
2022/10/20 08:25:41;;;;;;;8.20;6.67;;;12.50;99.90;;;;;;6251314;22;20182;-47
2022/10/20 08:28:07;;;;;;;8.20;4.60;;;12.50;99.90;;;;;;6250705;22;20268;-44
2022/10/20 08:30:33;;;;;;;10.53;7.60;;;12.60;99.90;;;;;;6249831;22;20174;-44
2022/10/20 08:32:58;;;;;;;13.67;7.50;;;12.60;99.90;;;;;;6250623;22;20673;-45
2022/10/20 08:35:24;;;;;;;13.83;7.60;;;12.70;99.90;;;;;;6251340;22;20181;-47
2022/10/20 08:37:50;;;;;;;10.03;7.27;;;12.80;99.90;;;;;;6251625;23;20178;-44
2022/10/20 08:40:19;;;;;;;10.07;7.17;;;12.80;99.90;;;;;;6251879;23;20228;-47
2022/10/20 08:42:46;;;;;;;9.87;6.57;;;12.80;99.90;;;;;;6253858;22;20201;-45
2022/10/20 08:45:21;;;;;;;11.07;7.00;;;12.90;99.90;;;;;;6254275;22;20163;-45
2022/10/20 08:47:49;;;;;;;8.67;6.67;;;12.90;99.90;;;;;;6252286;23;20190;-47
2022/10/20 08:50:17;;;;;;;8.77;4.90;;;12.90;99.90;;;;;;6253392;22;20152;-46
2022/10/20 08:52:45;;;;;;;9.67;5.87;;;13.00;99.90;;;;;;6252247;23;20230;-45
2022/10/20 08:55:32;;;;;;;12.07;6.83;;;13.00;99.90;;;;;;6254120;22;20160;-44
2022/10/20 08:58:10;;;;;;;14.17;6.87;;;13.00;99.90;;;;;;6252201;22;20257;-43
2022/10/20 09:00:37;;;;;;;14.13;7.00;;;13.00;99.90;;;;;;6249327;22;20158;-42
2022/10/20 09:03:23;;;;;;;9.67;6.40;;;13.00;99.90;;;;;;6249469;22;20155;-41
2022/10/20 09:05:53;;;;;;;8.00;7.07;;;13.10;99.90;;;;;;6249316;22;20221;-42
2022/10/20 09:08:23;;;;;;;9.43;6.77;;;13.30;99.90;;;;;;6247703;23;20185;-40
2022/10/20 09:10:52;;;;;;;10.57;7.37;;;13.40;99.90;;;;;;6249460;22;20156;-38
2022/10/20 09:13:22;;;;;;;8.43;6.93;;;13.50;99.90;;;;;;6249605;22;20179;-40
2022/10/20 09:15:54;;;;;;;10.40;7.27;;;13.60;99.90;;;;;;6249598;22;20154;-41
2022/10/20 09:18:20;;;;;;;15.40;7.13;;;13.60;99.90;;;;;;6249121;22;20609;-40
2022/10/20 09:21:20;;;;;;;11.03;6.70;;;13.60;99.90;;;;;;6249265;22;20187;-40
2022/10/20 09:23:51;;;;;;;12.40;7.53;;;13.60;99.90;;;;;;6242348;23;20163;-39
2022/10/20 09:26:20;;;;;;;14.63;8.43;;;13.70;99.90;;;;;;6249269;22;20214;-40
2022/10/20 09:28:50;;;;;;;13.67;8.10;;;13.70;99.90;;;;;;6249132;22;20261;-40
2022/10/20 09:31:37;;;;;;;9.93;7.17;;;13.70;99.90;;;;;;6249531;22;20183;-41
2022/10/20 09:34:25;;;;;;;19.90;8.10;;;13.70;99.90;;;;;;6249494;22;20149;-40
2022/10/20 09:37:03;;;;;;;18.40;9.60;;;13.70;99.90;;;;;;6249377;22;20179;-41
2022/10/20 09:39:45;;;;;;;12.13;7.80;;;13.60;99.90;;;;;;6247655;23;20474;-41
2022/10/20 09:42:30;;;;;;;12.60;7.07;;;13.60;99.90;;;;;;6249107;22;20144;-38
2022/10/20 09:45:00;;;;;;;15.13;6.13;;;13.60;99.90;;;;;;6248198;23;20172;-42
2022/10/20 09:47:27;;;;;;;8.93;6.50;;;13.50;99.90;;;;;;6248811;22;20187;-41
2022/10/20 09:49:57;;;;;;;12.43;7.30;;;13.50;99.90;;;;;;6247454;22;20151;-43
2022/10/20 09:52:29;;;;;;;10.77;7.47;;;13.40;99.90;;;;;;6247812;22;20146;-41
2022/10/20 09:55:01;;;;;;;12.90;7.20;;;13.40;99.90;;;;;;6245947;23;20471;-40
2022/10/20 09:57:27;;;;;;;16.17;8.67;;;13.40;99.90;;;;;;6247607;22;20186;-43
2022/10/20 09:59:55;;;;;;;9.60;6.43;;;13.40;99.90;;;;;;6248052;22;20152;-39
2022/10/20 10:02:20;;;;;;;10.40;5.53;;;13.50;99.90;;;;;;6247275;22;20613;-43
2022/10/20 10:04:48;;;;;;;12.43;7.27;;;13.50;99.90;;;;;;6248887;22;20160;-41
2022/10/20 10:07:26;;;;;;;12.47;6.57;;;13.50;99.90;;;;;;6249558;22;20198;-40
2022/10/20 10:10:01;;;;;;;10.57;5.70;;;13.50;99.90;;;;;;6248066;22;20155;-40
2022/10/20 10:12:29;;;;;;;9.50;7.10;;;13.60;99.90;;;;;;6247572;22;20523;-39
2022/10/20 10:15:05;;;;;;;11.47;6.67;;;13.60;99.90;;;;;;6247261;22;20152;-40
2022/10/20 10:17:39;;;;;;;9.17;6.30;;;13.60;99.90;;;;;;6247092;22;20176;-43
2022/10/20 10:20:11;;;;;;;13.67;7.33;;;13.60;99.90;;;;;;6247470;22;20524;-42
2022/10/20 10:22:38;;;;;;;13.20;6.73;;;13.60;99.90;;;;;;6244810;23;20502;-42
2022/10/20 10:25:05;;;;;;;10.13;7.73;;;13.60;99.90;;;;;;6247050;22;20152;-43
2022/10/20 10:27:34;;;;;;;10.23;7.23;;;13.60;99.90;;;;;;6247081;22;20240;-39
2022/10/20 10:30:28;;;;;;;9.13;6.53;;;13.60;99.90;;;;;;6247836;22;20194;-41
2022/10/20 10:32:54;;;;;;;6.60;5.47;;;13.50;99.90;;;;;;6244117;23;20188;-40
2022/10/20 10:35:37;;;;;;;13.83;6.83;;;13.50;99.90;;;;;;6247018;22;20660;-40
2022/10/20 10:38:02;;;;;;;11.43;7.70;;;13.40;99.90;;;;;;6245452;23;20176;-41
2022/10/20 10:40:34;;;;;;;14.87;8.33;;;13.40;99.90;;;;;;6246889;22;20604;-41
2022/10/20 10:43:28;;;;;;;12.23;8.10;;;13.30;99.90;;;;;;6245478;23;20184;-42
2022/10/20 10:46:04;;;;;;;11.60;7.73;;;13.30;99.90;;;;;;6245334;23;20229;-42
2022/10/20 10:48:57;;;;;;;9.07;6.83;;;13.30;99.90;;;;;;6246782;22;20172;-41
2022/10/20 10:52:04;;;;;;;9.30;7.40;;;13.30;99.90;;;;;;6246584;23;20163;-42
2022/10/20 10:54:42;;;;;;;14.43;7.10;;;13.30;99.90;;;;;;6246315;23;20213;-42
2022/10/20 10:57:21;;;;;;;12.20;6.87;;;13.20;99.90;;;;;;6248174;22;20632;-39
2022/10/20 10:59:50;;;;;;;14.93;8.07;;;13.20;99.90;;;;;;6246648;22;20151;-40
2022/10/20 11:02:33;;;;;;;9.40;6.97;;;13.20;99.90;;;;;;6247151;22;20183;-40
2022/10/20 11:05:20;;;;;;;9.60;6.33;;;13.20;99.90;;;;;;6246821;22;20174;-43
2022/10/20 11:07:57;;;;;;;11.23;6.90;;;13.10;99.90;;;;;;6246920;22;20171;-40
2022/10/20 11:10:37;;;;;;;13.33;6.83;;;13.10;99.90;;;;;;6247176;22;20171;-41
2022/10/20 11:13:20;;;;;;;11.60;6.80;;;13.10;99.90;;;;;;6246594;22;20606;-43
2022/10/20 11:15:57;;;;;;;10.50;6.57;;;13.00;99.90;;;;;;6247521;22;20269;-40
2022/10/20 11:18:51;;;;;;;11.00;7.37;;;13.00;99.90;;;;;;6246624;22;20250;-44
2022/10/20 11:21:36;;;;;;;12.13;7.83;;;12.90;99.90;;;;;;6245165;23;20155;-41
2022/10/20 11:24:30;;;;;;;9.57;6.90;;;12.90;99.90;;;;;;6246982;22;20150;-42
2022/10/20 11:27:02;;;;;;;15.73;8.20;;;12.90;99.90;;;;;;6246416;22;20188;-41
2022/10/20 11:29:36;;;;;;;12.07;7.00;;;13.00;99.90;;;;;;6244984;23;20171;-43
2022/10/20 11:32:11;;;;;;;11.57;6.87;;;12.90;99.90;;;;;;6246730;22;20226;-42
2022/10/20 11:34:56;;;;;;;11.23;7.10;;;13.00;99.90;;;;;;6246487;22;20155;-41
2022/10/20 11:37:24;;;;;;;12.43;7.77;;;13.00;99.90;;;;;;6246838;22;20573;-41
2022/10/20 11:40:08;;;;;;;12.63;7.07;;;13.00;99.90;;;;;;6248819;22;20178;-48
2022/10/20 11:42:58;;;;;;;9.37;7.07;;;13.00;99.90;;;;;;6250133;22;20151;-47
2022/10/20 11:45:34;;;;;;;14.17;7.53;;;13.00;99.90;;;;;;6252423;22;20183;-47
2022/10/20 11:48:24;;;;;;;15.33;6.43;;;13.00;99.90;;;;;;6252459;22;20613;-47
2022/10/20 11:51:07;;;;;;;12.33;7.80;;;13.00;99.90;;;;;;6251566;22;20139;-45
2022/10/20 11:53:54;;;;;;;14.37;8.20;;;13.00;99.90;;;;;;6250168;23;20140;-46
2022/10/20 11:56:39;;;;;;;12.60;8.13;;;13.00;99.90;;;;;;6251652;23;20235;-47
2022/10/20 11:59:31;;;;;;;10.87;8.20;;;13.00;99.90;;;;;;6253442;23;20167;-46
2022/10/20 12:02:03;;;;;;;10.40;7.77;;;13.10;99.90;;;;;;6252524;22;20144;-46
2022/10/20 12:04:59;;;;;;;12.00;7.53;;;13.10;99.90;;;;;;6250200;22;20147;-46
2022/10/20 12:07:36;;;;;;;17.53;7.57;;;13.10;99.90;;;;;;6249597;22;20187;-45
2022/10/20 12:10:32;;;;;;;9.97;6.80;;;13.10;99.90;;;;;;6249378;22;20143;-46
2022/10/20 12:13:11;;;;;;;12.17;7.77;;;13.10;99.90;;;;;;6249251;22;20246;-49
2022/10/20 12:15:46;;;;;;;13.80;7.17;;;13.20;99.90;;;;;;6249911;22;20562;-45
2022/10/20 12:18:35;;;;;;;7.83;6.97;;;13.30;99.90;;;;;;6249081;22;20228;-47
2022/10/20 12:21:03;;;;;;;12.47;7.80;;;13.40;99.90;;;;;;6237240;23;20159;-48
2022/10/20 12:24:02;;;;;;;12.37;7.60;;;13.40;99.90;;;;;;6249158;22;20172;-46
2022/10/20 12:26:38;;;;;;;11.90;7.70;;;13.50;99.90;;;;;;6230674;23;20190;-45
2022/10/20 12:29:29;;;;;;;12.73;7.17;;;13.60;99.90;;;;;;6248766;22;20163;-47
2022/10/20 12:32:31;;;;;;;13.27;8.13;;;13.60;99.90;;;;;;6248720;22;20179;-47
2022/10/20 12:34:59;;;;;;;12.90;8.27;;;13.70;99.90;;;;;;6248526;23;20155;-45
2022/10/20 12:37:35;;;;;;;13.20;7.50;;;13.70;99.90;;;;;;6248941;22;20546;-47
2022/10/20 12:40:24;;;;;;;13.57;7.97;;;13.80;99.90;;;;;;6248749;22;20158;-46
2022/10/20 12:42:53;;;;;;;12.77;8.87;;;13.90;99.90;;;;;;6234407;23;20166;-46
2022/10/20 12:45:18;;;;;;;12.33;8.80;;;13.90;99.90;;;;;;6248503;22;20155;-45
2022/10/20 12:47:58;;;;;;;12.20;8.97;;;14.00;99.90;;;;;;6247972;22;20723;-45
2022/10/20 12:50:44;;;;;;;11.43;6.13;;;14.10;99.90;;;;;;6248244;22;20582;-45
2022/10/20 12:53:19;;;;;;;15.37;9.00;;;14.10;99.90;;;;;;6247430;23;20302;-46
2022/10/20 12:55:59;;;;;;;11.70;7.63;;;14.10;99.90;;;;;;6248175;22;20572;-47
2022/10/20 12:58:31;;;;;;;13.67;8.43;;;14.10;99.90;;;;;;6248544;22;20175;-45